Grand Marsh, Wisconsin
Current Conditions -  °F | °C
As of 9:15 PM on Monday 26 Jan 2015 (Local Time) from KY50 Reporting Station
Haze Haze  
Wind Chill: 23°   Ceiling: 900
Heat Index: 23°   Visibility: 6mi
Dew Point: 23°   Wind: 0mph
Humidity: 100%   Direction: NA
Pressure: 29.9"   Gusts: NA
Location:  43.89°N, 89.71°W
Report Text: KY50 270315Z AUTO 00000KT 6SM BR FEW001 BKN009 OVC037 M05/M05 A2990 RMK AO2 TSNO SNE12 P0000
Loading
Personal Weather Stations






























Interactive Weather Map New forecast layout! Learn more

10-Day Weather Forecast

Advertisements
Track Severe Weather on mobile